createdAt,value
2022-09-10T00:03:08.560Z,6.50
2022-09-10T00:08:12.439Z,6.60
2022-09-10T00:13:21.069Z,7.20
2022-09-10T00:18:24.054Z,7.80
2022-09-10T00:23:30.055Z,6.20
2022-09-10T00:28:33.005Z,6.40
2022-09-10T00:33:35.889Z,7.70
2022-09-10T00:38:38.967Z,5.00
2022-09-10T00:44:02.525Z,6.70
2022-09-10T00:49:21.506Z,6.70
2022-09-10T01:10:36.145Z,4.70
2022-09-10T01:16:02.539Z,5.60
2022-09-10T01:21:32.260Z,6.10
2022-09-10T01:27:19.160Z,8.30
2022-09-10T01:32:30.212Z,5.30
2022-09-10T01:37:37.911Z,6.00
2022-09-10T01:42:41.285Z,6.00
2022-09-10T01:48:01.831Z,5.90
2022-09-10T01:53:28.256Z,8.20
2022-09-10T01:58:40.206Z,7.50
2022-09-10T02:03:47.256Z,7.40
2022-09-10T02:08:53.874Z,7.80
2022-09-10T02:13:57.754Z,6.90
2022-09-10T02:19:01.558Z,7.10
2022-09-10T02:24:09.834Z,7.30
2022-09-10T02:29:14.281Z,7.70
2022-09-10T02:34:15.785Z,9.70
2022-09-10T02:39:17.353Z,10.60
2022-09-10T02:44:18.892Z,10.30
2022-09-10T02:49:21.105Z,11.90
2022-09-10T02:54:22.587Z,12.40
2022-09-10T02:59:24.576Z,10.60
2022-09-10T03:04:26.091Z,12.00
2022-09-10T03:09:28.268Z,10.70
2022-09-10T03:14:30.526Z,12.40
2022-09-10T03:19:32.034Z,12.10
2022-09-10T03:24:33.520Z,10.70
2022-09-10T03:29:35.699Z,9.40
2022-09-10T03:34:37.268Z,8.20
2022-09-10T03:39:38.742Z,8.50
2022-09-10T03:44:40.368Z,8.70
2022-09-10T03:49:42.173Z,9.40
2022-09-10T03:54:44.930Z,10.40
2022-09-10T03:59:46.561Z,10.60
2022-09-10T04:04:48.405Z,11.30
2022-09-10T04:09:50.227Z,10.20
2022-09-10T04:14:52.097Z,11.00
2022-09-10T04:19:53.659Z,12.40
2022-09-10T04:24:55.339Z,14.90
2022-09-10T04:29:57.077Z,13.70
2022-09-10T04:34:58.629Z,13.40
2022-09-10T04:40:00.570Z,12.40
2022-09-10T04:45:02.273Z,13.60
2022-09-10T04:50:05.928Z,11.50
2022-09-10T04:55:07.893Z,16.20
2022-09-10T05:00:10.540Z,13.30
2022-09-10T05:05:12.060Z,12.70
2022-09-10T05:10:14.746Z,11.00
2022-09-10T05:15:16.311Z,12.20
2022-09-10T05:20:17.813Z,11.20
2022-09-10T05:25:19.265Z,11.30
2022-09-10T05:30:21.359Z,10.30
2022-09-10T05:35:22.846Z,12.80
2022-09-10T05:40:24.856Z,11.60
2022-09-10T05:45:26.561Z,9.30
2022-09-10T05:50:29.776Z,13.30
2022-09-10T05:55:32.591Z,12.40
2022-09-10T06:00:35.896Z,12.80
2022-09-10T06:05:37.426Z,11.20
2022-09-10T06:10:38.933Z,11.00
2022-09-10T06:15:41.650Z,10.90
2022-09-10T06:20:43.145Z,10.30
2022-09-10T06:25:45.465Z,8.10
2022-09-10T06:30:46.974Z,9.20
2022-09-10T06:35:53.997Z,9.70
2022-09-10T06:41:00.090Z,9.70
2022-09-10T06:46:19.259Z,10.40
2022-09-10T06:51:31.436Z,9.90
2022-09-10T06:56:33.436Z,10.30
2022-09-10T07:01:35.229Z,8.10
2022-09-10T07:06:37.779Z,10.70
2022-09-10T07:11:41.768Z,7.60
2022-09-10T07:16:44.043Z,10.00
2022-09-10T07:21:45.551Z,9.30
2022-09-10T07:26:47.083Z,8.80
2022-09-10T07:31:49.016Z,9.80
2022-09-10T07:36:50.748Z,11.20
2022-09-10T07:41:52.878Z,9.10
2022-09-10T07:46:54.422Z,12.30
2022-09-10T07:51:59.776Z,13.70
2022-09-10T07:57:02.529Z,12.40
2022-09-10T08:02:05.927Z,9.00
2022-09-10T08:07:07.783Z,9.00
2022-09-10T08:12:09.348Z,11.80
2022-09-10T08:17:10.927Z,10.70
2022-09-10T08:22:13.847Z,9.50
2022-09-10T08:27:16.850Z,11.50
2022-09-10T08:32:18.410Z,10.70
2022-09-10T08:37:20.894Z,10.00
2022-09-10T08:42:32.740Z,7.50
2022-09-10T08:48:01.907Z,6.80
2022-09-10T08:53:22.575Z,7.40
2022-09-10T08:58:41.956Z,8.00
2022-09-10T09:03:46.839Z,8.60
2022-09-10T09:08:49.639Z,6.50
2022-09-10T09:14:12.485Z,8.10
2022-09-10T09:19:48.974Z,7.10
2022-09-10T09:25:03.543Z,5.40
2022-09-10T09:30:16.799Z,5.10
2022-09-10T09:35:31.862Z,5.90
2022-09-10T09:40:50.144Z,5.90
2022-09-10T09:45:53.393Z,6.30
2022-09-10T09:50:59.762Z,9.90
2022-09-10T09:56:10.383Z,10.20
2022-09-10T10:01:17.589Z,12.00
2022-09-10T10:06:28.093Z,10.80
2022-09-10T10:11:44.901Z,8.40
2022-09-10T10:16:48.318Z,8.60
2022-09-10T10:21:49.928Z,9.30
2022-09-10T10:26:51.556Z,9.80
2022-09-10T10:31:55.583Z,9.30
2022-09-10T10:37:42.430Z,8.40
2022-09-10T10:43:15.713Z,8.80
2022-09-10T10:48:29.093Z,9.30
2022-09-10T10:54:04.853Z,8.60
2022-09-10T10:59:36.335Z,16.50
2022-09-10T11:04:53.680Z,11.40
2022-09-10T11:10:24.261Z,13.20
2022-09-10T11:15:53.324Z,9.50
2022-09-10T11:21:15.755Z,15.30
2022-09-10T11:26:54.050Z,10.80
2022-09-10T11:32:17.799Z,8.10
2022-09-10T11:37:22.038Z,9.30
2022-09-10T11:42:41.354Z,10.90
2022-09-10T11:48:01.536Z,11.20
2022-09-10T11:53:06.764Z,10.90
2022-09-10T11:58:45.656Z,10.40
2022-09-10T12:04:08.205Z,14.30
2022-09-10T12:09:49.207Z,11.40
2022-09-10T12:14:51.042Z,11.60
2022-09-10T12:19:55.972Z,10.70
2022-09-10T12:25:15.755Z,11.60
2022-09-10T12:30:30.294Z,10.20
2022-09-10T12:35:34.894Z,11.60
2022-09-10T12:40:36.423Z,11.60
2022-09-10T12:46:09.278Z,11.80
2022-09-10T12:51:17.457Z,13.50
2022-09-10T12:56:56.877Z,13.00
2022-09-10T13:01:59.198Z,10.10
2022-09-10T13:07:27.372Z,12.30
2022-09-10T13:12:32.238Z,12.30
2022-09-10T13:18:00.732Z,12.50
2022-09-10T13:23:08.255Z,13.30
2022-09-10T13:28:29.295Z,13.20
2022-09-10T13:33:44.901Z,16.30
2022-09-10T13:39:40.923Z,12.80
2022-09-10T13:45:22.983Z,15.10
2022-09-10T13:50:37.162Z,16.00
2022-09-10T13:55:54.574Z,14.10
2022-09-10T14:01:05.854Z,15.20
2022-09-10T14:06:22.124Z,16.10
2022-09-10T14:11:29.781Z,17.50
2022-09-10T14:16:37.410Z,18.30
2022-09-10T14:21:38.962Z,17.00
2022-09-10T14:26:40.543Z,16.10
2022-09-10T14:31:42.248Z,17.30
2022-09-10T14:36:43.786Z,14.50
2022-09-10T14:41:46.469Z,13.40
2022-09-10T14:47:36.657Z,16.50
2022-09-10T14:52:38.391Z,15.90
2022-09-10T14:57:40.743Z,17.90
2022-09-10T15:02:42.399Z,19.60
2022-09-10T15:07:46.871Z,19.90
2022-09-10T15:12:51.918Z,17.60
2022-09-10T15:17:53.514Z,20.00
2022-09-10T15:22:55.126Z,19.80
2022-09-10T15:27:56.774Z,33.60
2022-09-10T15:32:58.360Z,25.50
2022-09-10T15:38:02.951Z,25.00
2022-09-10T15:43:05.601Z,23.50
2022-09-10T15:48:07.788Z,32.30
2022-09-10T15:53:20.695Z,29.90
2022-09-10T15:58:23.502Z,29.20
2022-09-10T16:03:25.708Z,37.20
2022-09-10T16:08:28.247Z,31.00
2022-09-10T16:13:30.635Z,27.80
2022-09-10T16:18:36.736Z,24.40
2022-09-10T16:23:41.453Z,24.00
2022-09-10T16:28:51.751Z,25.60
2022-09-10T16:33:55.890Z,20.90
2022-09-10T16:39:02.652Z,23.80
2022-09-10T16:44:05.343Z,25.00
2022-09-10T16:49:11.901Z,25.40
2022-09-10T16:54:15.331Z,25.90
2022-09-10T16:59:21.149Z,21.70
2022-09-10T17:04:29.140Z,20.50
2022-09-10T17:09:31.374Z,24.70
2022-09-10T17:14:33.022Z,23.90
2022-09-10T17:19:37.436Z,22.20
2022-09-10T17:24:38.961Z,22.80
2022-09-10T17:29:41.135Z,24.80
2022-09-10T17:34:44.760Z,32.40
2022-09-10T17:39:47.156Z,31.00
2022-09-10T17:44:48.907Z,33.40
2022-09-10T17:49:51.548Z,25.80
2022-09-10T17:54:53.404Z,26.60
2022-09-10T17:59:55.171Z,27.20
2022-09-10T18:04:57.147Z,28.50
2022-09-10T18:10:02.524Z,24.60
2022-09-10T18:15:05.837Z,27.10
2022-09-10T18:20:08.053Z,30.30
2022-09-10T18:25:09.696Z,30.10
2022-09-10T18:30:13.145Z,33.20
2022-09-10T18:35:14.852Z,31.10
2022-09-10T18:40:17.581Z,29.10
2022-09-10T18:45:19.946Z,28.80
2022-09-10T18:50:25.845Z,30.90
2022-09-10T18:55:28.153Z,29.10
2022-09-10T19:00:29.716Z,29.60
2022-09-10T19:05:31.607Z,33.20
2022-09-10T19:10:36.110Z,34.60
2022-09-10T19:15:37.668Z,34.00
2022-09-10T19:20:39.467Z,31.70
2022-09-10T19:25:56.698Z,29.00
2022-09-10T19:31:02.755Z,21.90
2022-09-10T19:36:09.537Z,22.90
2022-09-10T19:41:18.393Z,21.00
2022-09-10T19:46:24.610Z,24.10
2022-09-10T19:51:36.079Z,24.90
2022-09-10T19:56:41.950Z,23.00
2022-09-10T20:01:45.714Z,26.50
2022-09-10T20:06:50.256Z,27.80
2022-09-10T20:11:52.106Z,27.90
2022-09-10T20:16:54.221Z,29.10
2022-09-10T20:21:55.798Z,29.50
2022-09-10T20:26:57.747Z,28.90
2022-09-10T20:31:59.850Z,32.60
2022-09-10T20:37:02.539Z,34.80
2022-09-10T20:42:04.721Z,34.60
2022-09-10T20:47:08.528Z,32.70
2022-09-10T20:52:10.112Z,35.40
2022-09-10T20:57:11.971Z,31.90
2022-09-10T21:02:13.544Z,31.10
2022-09-10T21:07:16.575Z,29.00
2022-09-10T21:12:18.190Z,31.70
2022-09-10T21:17:19.739Z,34.50
2022-09-10T21:22:21.590Z,39.10
2022-09-10T21:27:23.488Z,37.20
2022-09-10T21:32:25.055Z,38.80
2022-09-10T21:37:26.583Z,37.40
2022-09-10T21:42:28.224Z,38.90
2022-09-10T21:47:30.564Z,38.30
2022-09-10T21:52:32.106Z,36.90
2022-09-10T21:57:33.669Z,31.30
2022-09-10T22:02:35.621Z,29.10
2022-09-10T22:07:37.162Z,30.00
2022-09-10T22:12:38.759Z,31.70
2022-09-10T22:17:40.792Z,29.60
2022-09-10T22:22:43.715Z,33.40
2022-09-10T22:27:45.216Z,35.00
2022-09-10T22:32:46.745Z,32.20
2022-09-10T22:37:48.266Z,33.30
2022-09-10T22:42:51.133Z,33.60
2022-09-10T22:47:52.693Z,31.70
2022-09-10T22:52:54.569Z,33.10
2022-09-10T22:57:56.064Z,32.10
2022-09-10T23:02:57.647Z,32.60
2022-09-10T23:07:59.198Z,32.80
2022-09-10T23:13:00.820Z,31.40
2022-09-10T23:18:02.367Z,36.10
2022-09-10T23:23:03.845Z,32.00
2022-09-10T23:28:07.360Z,34.30
2022-09-10T23:33:09.281Z,33.00
2022-09-10T23:38:10.826Z,37.90
2022-09-10T23:43:13.869Z,30.00
2022-09-10T23:48:15.407Z,29.50
2022-09-10T23:53:18.350Z,36.50
2022-09-10T23:58:21.044Z,25.30
